createdAt,value
2018-05-24T00:00:54.238Z,0
2018-05-24T00:01:54.238Z,0
2018-05-24T00:02:54.235Z,0
2018-05-24T00:03:54.760Z,0
2018-05-24T00:04:54.544Z,0
2018-05-24T00:05:54.756Z,0
2018-05-24T00:06:54.251Z,0
2018-05-24T00:07:54.769Z,0
2018-05-24T00:08:54.490Z,0
2018-05-24T00:09:54.777Z,0
2018-05-24T00:10:54.846Z,0
2018-05-24T00:11:54.753Z,0
2018-05-24T00:12:54.239Z,0
2018-05-24T00:13:54.500Z,0
2018-05-24T00:14:54.513Z,0
2018-05-24T00:15:54.494Z,0
2018-05-24T00:16:55.027Z,0
2018-05-24T00:17:54.502Z,0
2018-05-24T00:18:54.759Z,0
2018-05-24T00:19:54.598Z,0
2018-05-24T00:20:54.789Z,0
2018-05-24T00:21:54.522Z,0
2018-05-24T00:22:54.770Z,0
2018-05-24T00:23:53.993Z,0
2018-05-24T00:24:53.991Z,0
2018-05-24T00:25:54.765Z,0
2018-05-24T00:26:54.769Z,0
2018-05-24T00:27:54.523Z,0
2018-05-24T00:28:59.507Z,0
2018-05-24T00:29:54.774Z,0
2018-05-24T00:30:54.521Z,0
2018-05-24T00:31:54.767Z,0
2018-05-24T00:32:54.764Z,0
2018-05-24T00:33:54.761Z,0
2018-05-24T00:34:54.797Z,0
2018-05-24T00:35:54.759Z,0
2018-05-24T00:36:54.772Z,0
2018-05-24T00:37:54.507Z,0
2018-05-24T00:38:54.787Z,0
2018-05-24T00:39:54.505Z,0
2018-05-24T00:40:54.254Z,0
2018-05-24T00:41:54.761Z,0
2018-05-24T00:42:54.242Z,0
2018-05-24T00:43:54.510Z,0
2018-05-24T00:44:54.518Z,0
2018-05-24T00:45:54.008Z,0
2018-05-24T00:46:54.823Z,0
2018-05-24T00:47:54.250Z,0
2018-05-24T00:48:54.781Z,0
2018-05-24T00:49:54.520Z,0
2018-05-24T00:50:55.120Z,0
2018-05-24T00:51:55.153Z,0
2018-05-24T00:52:54.780Z,0
2018-05-24T00:53:54.770Z,0
2018-05-24T00:54:54.687Z,0
2018-05-24T00:55:54.536Z,0
2018-05-24T00:56:54.783Z,0
2018-05-24T00:57:54.778Z,0
2018-05-24T00:58:54.781Z,0
2018-05-24T00:59:54.279Z,0
2018-05-24T01:00:54.274Z,0
2018-05-24T01:01:55.045Z,0
2018-05-24T01:02:54.789Z,0
2018-05-24T01:03:54.259Z,0
2018-05-24T01:04:54.781Z,0
2018-05-24T01:05:54.583Z,0
2018-05-24T01:06:54.772Z,0
2018-05-24T01:07:54.593Z,0
2018-05-24T01:08:54.510Z,0
2018-05-24T01:09:54.530Z,0
2018-05-24T01:10:54.260Z,0
2018-05-24T01:11:54.269Z,0
2018-05-24T01:12:54.003Z,0
2018-05-24T01:13:54.268Z,0
2018-05-24T01:14:54.577Z,0
2018-05-24T01:15:54.387Z,0
2018-05-24T01:16:54.268Z,0
2018-05-24T01:17:54.325Z,0
2018-05-24T01:18:54.791Z,0
2018-05-24T01:19:54.521Z,0
2018-05-24T01:20:54.519Z,0
2018-05-24T01:21:54.801Z,0
2018-05-24T01:22:54.781Z,0
2018-05-24T01:23:54.270Z,0
2018-05-24T01:24:54.525Z,0
2018-05-24T01:25:54.788Z,0
2018-05-24T01:26:54.528Z,0
2018-05-24T01:27:54.526Z,0
2018-05-24T01:28:54.519Z,0
2018-05-24T01:29:54.787Z,0
2018-05-24T01:30:54.799Z,0
2018-05-24T01:31:54.269Z,0
2018-05-24T01:32:54.540Z,0
2018-05-24T01:33:55.062Z,0
2018-05-24T01:34:54.798Z,0
2018-05-24T01:35:54.535Z,0
2018-05-24T01:36:54.541Z,0
2018-05-24T01:37:54.536Z,0
2018-05-24T01:38:54.790Z,0
2018-05-24T01:39:55.053Z,0
2018-05-24T01:40:54.790Z,0
2018-05-24T01:41:54.268Z,0
2018-05-24T01:42:54.526Z,0
2018-05-24T01:43:54.815Z,0
2018-05-24T01:44:54.870Z,0
2018-05-24T01:45:54.797Z,0
2018-05-24T01:46:54.803Z,0
2018-05-24T01:47:54.305Z,0
2018-05-24T01:48:54.813Z,0
2018-05-24T01:49:54.530Z,0
2018-05-24T01:50:54.530Z,0
2018-05-24T01:51:54.546Z,0
2018-05-24T01:52:54.811Z,0
2018-05-24T01:53:54.259Z,0
2018-05-24T01:54:54.298Z,0
2018-05-24T01:55:54.799Z,0
2018-05-24T01:56:54.813Z,0
2018-05-24T01:57:54.548Z,0
2018-05-24T01:58:54.535Z,0
2018-05-24T01:59:55.026Z,0
2018-05-24T02:00:54.289Z,0
2018-05-24T02:01:54.812Z,0
2018-05-24T02:02:54.567Z,0
2018-05-24T02:03:54.811Z,0
2018-05-24T02:04:54.545Z,0
2018-05-24T02:05:54.573Z,0
2018-05-24T02:06:54.539Z,0
2018-05-24T02:07:54.036Z,0
2018-05-24T02:08:54.287Z,0
2018-05-24T02:09:54.542Z,0
2018-05-24T02:10:54.542Z,0
2018-05-24T02:11:54.539Z,0
2018-05-24T02:12:54.538Z,0
2018-05-24T02:13:54.540Z,0
2018-05-24T02:14:54.818Z,0
2018-05-24T02:15:54.543Z,0
2018-05-24T02:16:54.861Z,0
2018-05-24T02:17:54.811Z,0
2018-05-24T02:18:55.075Z,0
2018-05-24T02:19:54.542Z,0
2018-05-24T02:20:54.564Z,0
2018-05-24T02:21:54.836Z,0
2018-05-24T02:22:54.284Z,0
2018-05-24T02:23:54.545Z,0
2018-05-24T02:24:54.305Z,0
2018-05-24T02:25:54.589Z,0
2018-05-24T02:26:54.546Z,0
2018-05-24T02:27:54.549Z,0
2018-05-24T02:28:54.911Z,0
2018-05-24T02:29:54.547Z,0
2018-05-24T02:30:55.081Z,0
2018-05-24T02:31:54.842Z,0
2018-05-24T02:32:55.122Z,0
2018-05-24T02:33:55.127Z,0
2018-05-24T02:34:55.089Z,0
2018-05-24T02:35:55.703Z,0
2018-05-24T02:36:54.825Z,0
2018-05-24T02:37:55.137Z,0
2018-05-24T02:38:54.574Z,0
2018-05-24T02:39:54.549Z,0
2018-05-24T02:40:54.814Z,0
2018-05-24T02:41:55.157Z,0
2018-05-24T02:42:54.814Z,0
2018-05-24T02:43:55.097Z,0
2018-05-24T02:44:54.614Z,0
2018-05-24T02:45:54.565Z,0
2018-05-24T02:46:54.825Z,0
2018-05-24T02:47:54.815Z,0
2018-05-24T02:48:55.090Z,0
2018-05-24T02:49:54.385Z,0
2018-05-24T02:50:55.081Z,0
2018-05-24T02:51:54.898Z,0
2018-05-24T02:52:54.824Z,0
2018-05-24T02:53:55.077Z,0
2018-05-24T02:54:54.823Z,0
2018-05-24T02:55:54.041Z,0
2018-05-24T02:56:54.838Z,0
2018-05-24T02:57:54.836Z,0
2018-05-24T02:58:54.588Z,0
2018-05-24T02:59:54.887Z,0
2018-05-24T03:00:55.081Z,0
2018-05-24T03:01:54.906Z,0
2018-05-24T03:02:54.583Z,0
2018-05-24T03:03:55.144Z,0
2018-05-24T03:04:54.370Z,0
2018-05-24T03:05:54.585Z,0
2018-05-24T03:06:55.170Z,0
2018-05-24T03:07:54.851Z,0
2018-05-24T03:08:54.302Z,0
2018-05-24T03:09:55.130Z,0
2018-05-24T03:10:54.608Z,0
2018-05-24T03:11:54.332Z,0
2018-05-24T03:12:54.567Z,0
2018-05-24T03:13:54.571Z,0
2018-05-24T03:14:54.848Z,0
2018-05-24T03:15:55.084Z,0
2018-05-24T03:16:55.099Z,0
2018-05-24T03:17:54.572Z,0
2018-05-24T03:18:54.334Z,0
2018-05-24T03:19:54.570Z,0
2018-05-24T03:20:55.107Z,0
2018-05-24T03:21:54.836Z,0
2018-05-24T03:22:54.573Z,0
2018-05-24T03:23:55.090Z,0
2018-05-24T03:24:54.577Z,0
2018-05-24T03:25:55.085Z,0
2018-05-24T03:26:54.857Z,0
2018-05-24T03:27:54.592Z,0
2018-05-24T03:28:54.868Z,0
2018-05-24T03:29:54.778Z,0
2018-05-24T03:30:54.848Z,0
2018-05-24T03:31:55.082Z,0
2018-05-24T03:32:54.839Z,0
2018-05-24T03:33:54.587Z,0
2018-05-24T03:34:54.849Z,0
2018-05-24T03:35:54.845Z,5
2018-05-24T03:36:54.322Z,5
2018-05-24T03:37:54.573Z,5
2018-05-24T03:38:54.834Z,5
2018-05-24T03:39:54.335Z,5
2018-05-24T03:40:54.308Z,5
2018-05-24T03:41:54.574Z,5
2018-05-24T03:42:54.848Z,5
2018-05-24T03:43:54.848Z,5
2018-05-24T03:44:55.089Z,5
2018-05-24T03:45:54.311Z,5
2018-05-24T03:46:55.104Z,5
2018-05-24T03:47:54.841Z,10
2018-05-24T03:48:54.834Z,10
2018-05-24T03:49:54.844Z,10
2018-05-24T03:50:54.822Z,10
2018-05-24T03:51:54.825Z,10
2018-05-24T03:52:54.578Z,10
2018-05-24T03:53:54.619Z,10
2018-05-24T03:54:54.336Z,10
2018-05-24T03:55:54.851Z,10
2018-05-24T03:56:55.082Z,10
2018-05-24T03:57:55.309Z,15
2018-05-24T03:58:54.851Z,15
2018-05-24T03:59:57.870Z,15
2018-05-24T04:00:54.311Z,15
2018-05-24T04:01:54.826Z,15
2018-05-24T04:02:54.567Z,15
2018-05-24T04:03:55.097Z,15
2018-05-24T04:04:54.567Z,15
2018-05-24T04:05:55.221Z,15
2018-05-24T04:06:55.093Z,15
2018-05-24T04:07:54.587Z,15
2018-05-24T04:08:54.552Z,20
2018-05-24T04:09:54.828Z,20
2018-05-24T04:10:54.825Z,20
2018-05-24T04:11:54.662Z,20
2018-05-24T04:12:55.108Z,20
2018-05-24T04:13:55.078Z,20
2018-05-24T04:14:54.820Z,20
2018-05-24T04:15:54.835Z,20
2018-05-24T04:16:54.302Z,20
2018-05-24T04:17:55.084Z,20
2018-05-24T04:18:54.576Z,20
2018-05-24T04:19:54.802Z,20
2018-05-24T04:20:54.831Z,20
2018-05-24T04:21:54.834Z,20
2018-05-24T04:22:54.568Z,20
2018-05-24T04:23:54.565Z,20
2018-05-24T04:24:54.815Z,20
2018-05-24T04:25:55.087Z,20
2018-05-24T04:26:54.887Z,20
2018-05-24T04:27:55.086Z,20
2018-05-24T04:28:55.069Z,20
2018-05-24T04:29:55.627Z,20
2018-05-24T04:30:54.828Z,20
2018-05-24T04:31:54.825Z,25
2018-05-24T04:32:55.221Z,25
2018-05-24T04:33:54.821Z,25
2018-05-24T04:34:54.834Z,25
2018-05-24T04:35:54.318Z,25
2018-05-24T04:36:54.625Z,30
2018-05-24T04:37:54.823Z,30
2018-05-24T04:38:54.826Z,30
2018-05-24T04:39:54.836Z,30
2018-05-24T04:40:54.817Z,30
2018-05-24T04:41:54.233Z,30
2018-05-24T04:42:54.298Z,35
2018-05-24T04:43:54.566Z,35
2018-05-24T04:44:55.077Z,35
2018-05-24T04:45:55.085Z,35
2018-05-24T04:46:54.826Z,35
2018-05-24T04:47:54.831Z,40
2018-05-24T04:48:54.827Z,40
2018-05-24T04:49:55.104Z,40
2018-05-24T04:50:54.838Z,40
2018-05-24T04:51:54.830Z,45
2018-05-24T04:52:55.121Z,45
2018-05-24T04:53:54.822Z,45
2018-05-24T04:54:55.093Z,45
2018-05-24T04:55:54.547Z,45
2018-05-24T04:56:55.087Z,40
2018-05-24T04:57:55.089Z,40
2018-05-24T04:58:54.838Z,40
2018-05-24T04:59:54.567Z,40
2018-05-24T05:00:55.091Z,40
2018-05-24T05:01:54.835Z,40
2018-05-24T05:02:55.112Z,40
2018-05-24T05:03:55.107Z,40
2018-05-24T05:04:55.111Z,40
2018-05-24T05:05:54.836Z,40
2018-05-24T05:06:54.821Z,40
2018-05-24T05:07:55.107Z,40
2018-05-24T05:08:54.324Z,40
2018-05-24T05:09:54.820Z,40
2018-05-24T05:10:54.847Z,40
2018-05-24T05:11:54.849Z,40
2018-05-24T05:12:54.849Z,40
2018-05-24T05:13:54.837Z,40
2018-05-24T05:14:55.370Z,40
2018-05-24T05:15:54.588Z,40
2018-05-24T05:16:54.332Z,40
2018-05-24T05:17:54.575Z,40
2018-05-24T05:18:54.850Z,40
2018-05-24T05:19:54.583Z,40
2018-05-24T05:20:54.601Z,40
2018-05-24T05:21:54.864Z,40
2018-05-24T05:22:54.581Z,40
2018-05-24T05:23:54.844Z,40
2018-05-24T05:24:55.156Z,40
2018-05-24T05:25:55.890Z,40
2018-05-24T05:26:55.118Z,40
2018-05-24T05:27:54.909Z,40
2018-05-24T05:28:55.100Z,40
2018-05-24T05:29:54.852Z,40
2018-05-24T05:30:54.845Z,40
2018-05-24T05:31:54.606Z,40
2018-05-24T05:32:54.892Z,40
2018-05-24T05:33:54.342Z,45
2018-05-24T05:34:54.895Z,45
2018-05-24T05:35:55.110Z,45
2018-05-24T05:36:54.621Z,45
2018-05-24T05:37:54.860Z,45
2018-05-24T05:38:54.853Z,45
2018-05-24T05:39:55.104Z,45
2018-05-24T05:40:54.590Z,45
2018-05-24T05:41:54.933Z,45
2018-05-24T05:42:54.851Z,50
2018-05-24T05:43:54.585Z,50
2018-05-24T05:44:55.295Z,50
2018-05-24T05:45:54.920Z,50
2018-05-24T05:46:54.869Z,50
2018-05-24T05:47:54.856Z,50
2018-05-24T05:48:55.117Z,55
2018-05-24T05:49:54.862Z,55
2018-05-24T05:50:55.120Z,55
2018-05-24T05:51:54.961Z,60
2018-05-24T05:52:54.889Z,65
2018-05-24T05:53:54.868Z,65
2018-05-24T05:54:55.124Z,65
2018-05-24T05:55:55.124Z,70
2018-05-24T05:56:55.114Z,70
2018-05-24T05:57:55.164Z,75
2018-05-24T05:58:54.875Z,75
2018-05-24T05:59:54.618Z,80
2018-05-24T06:00:54.611Z,80
2018-05-24T06:01:55.801Z,80
2018-05-24T06:02:54.879Z,85
2018-05-24T06:03:54.610Z,85
2018-05-24T06:04:54.606Z,85
2018-05-24T06:05:55.139Z,85
2018-05-24T06:06:54.872Z,90
2018-05-24T06:07:54.894Z,90
2018-05-24T06:08:54.615Z,90
2018-05-24T06:09:54.801Z,95
2018-05-24T06:10:54.609Z,95
2018-05-24T06:11:54.615Z,95
2018-05-24T06:12:54.895Z,95
2018-05-24T06:13:55.634Z,100
2018-05-24T06:24:15.060Z,130
2018-05-24T06:25:15.153Z,130
2018-05-24T06:26:15.048Z,130
2018-05-24T06:27:14.505Z,135
2018-05-24T06:28:14.236Z,135
2018-05-24T06:29:14.901Z,135
2018-05-24T06:30:14.579Z,135
2018-05-24T06:31:14.828Z,135
2018-05-24T06:32:14.552Z,135
2018-05-24T06:33:14.228Z,140
2018-05-24T06:34:14.225Z,140
2018-05-24T06:35:14.959Z,145
2018-05-24T06:36:14.819Z,140
2018-05-24T06:37:15.280Z,140
2018-05-24T06:38:14.527Z,145
2018-05-24T06:39:14.739Z,145
2018-05-24T06:40:14.914Z,145
2018-05-24T06:41:15.056Z,145
2018-05-24T06:42:14.545Z,145
2018-05-24T06:43:15.008Z,145
2018-05-24T06:44:14.621Z,145
2018-05-24T06:45:14.819Z,150
2018-05-24T06:46:14.765Z,155
2018-05-24T06:47:15.066Z,160
2018-05-24T06:48:14.241Z,165
2018-05-24T06:49:15.031Z,170
2018-05-24T06:50:14.545Z,175
2018-05-24T06:51:14.822Z,180
2018-05-24T06:52:14.752Z,180
2018-05-24T06:53:14.774Z,185
2018-05-24T06:54:14.501Z,185
2018-05-24T06:55:14.820Z,185
2018-05-24T06:56:14.556Z,195
2018-05-24T06:57:15.052Z,200
2018-05-24T06:58:14.776Z,205
2018-05-24T06:59:14.269Z,215
2018-05-24T07:00:15.041Z,220
2018-05-24T07:01:14.252Z,220
2018-05-24T07:02:14.754Z,225
2018-05-24T07:03:14.525Z,225
2018-05-24T07:04:14.763Z,220
2018-05-24T07:05:14.510Z,220
2018-05-24T07:06:15.051Z,220
2018-05-24T07:07:14.278Z,220
2018-05-24T07:08:14.777Z,220
2018-05-24T07:09:14.839Z,225
2018-05-24T07:10:14.889Z,225
2018-05-24T07:11:14.997Z,220
2018-05-24T07:12:15.040Z,220
2018-05-24T07:13:14.786Z,220
2018-05-24T07:14:14.525Z,220
2018-05-24T07:15:14.406Z,220
2018-05-24T07:16:15.113Z,225
2018-05-24T07:17:15.071Z,225
2018-05-24T07:18:14.791Z,220
2018-05-24T07:19:14.592Z,215
2018-05-24T07:20:15.176Z,210
2018-05-24T07:21:14.102Z,200
2018-05-24T07:22:14.818Z,200
2018-05-24T07:23:15.095Z,195
2018-05-24T07:24:14.545Z,195
2018-05-24T07:25:14.632Z,195
2018-05-24T07:26:14.878Z,195
2018-05-24T07:27:14.292Z,190
2018-05-24T07:28:14.843Z,190
2018-05-24T07:29:15.130Z,195
2018-05-24T07:30:14.829Z,195
2018-05-24T07:31:15.178Z,195
2018-05-24T07:32:14.317Z,200
2018-05-24T07:33:15.120Z,210
2018-05-24T07:34:15.634Z,215
2018-05-24T07:35:14.843Z,225
2018-05-24T07:36:14.850Z,225
2018-05-24T07:37:15.136Z,230
2018-05-24T07:38:15.139Z,230
2018-05-24T07:39:15.434Z,230
2018-05-24T07:40:14.940Z,230
2018-05-24T07:41:14.887Z,235
2018-05-24T07:42:15.117Z,240
2018-05-24T07:43:15.216Z,245
2018-05-24T07:44:14.879Z,250
2018-05-24T07:45:15.197Z,255
2018-05-24T07:46:15.224Z,260
2018-05-24T07:47:14.622Z,265
2018-05-24T07:48:14.607Z,265
2018-05-24T07:49:14.616Z,275
2018-05-24T07:50:14.639Z,285
2018-05-24T07:51:15.202Z,310
2018-05-24T07:52:14.644Z,320
2018-05-24T07:53:14.647Z,315
2018-05-24T07:54:15.181Z,320
2018-05-24T07:55:14.952Z,315
2018-05-24T07:56:15.253Z,340
2018-05-24T07:57:14.651Z,355
2018-05-24T07:58:14.399Z,385
2018-05-24T07:59:14.681Z,370
2018-05-24T08:00:14.456Z,380
2018-05-24T08:01:14.747Z,390
2018-05-24T08:02:14.680Z,345
2018-05-24T08:03:14.671Z,330
2018-05-24T08:04:14.485Z,350
2018-05-24T08:05:14.687Z,395
2018-05-24T08:06:14.776Z,365
2018-05-24T08:07:14.713Z,330
2018-05-24T08:08:14.971Z,320
2018-05-24T08:09:14.971Z,315
2018-05-24T08:10:15.029Z,320
2018-05-24T08:11:15.051Z,320
2018-05-24T08:12:15.238Z,320
2018-05-24T08:13:14.766Z,320
2018-05-24T08:14:15.004Z,320
2018-05-24T08:15:14.901Z,320
2018-05-24T08:16:15.284Z,360
2018-05-24T08:17:15.010Z,420
2018-05-24T08:18:15.005Z,435
2018-05-24T08:19:14.501Z,400
2018-05-24T08:20:14.681Z,420
2018-05-24T08:21:14.587Z,400
2018-05-24T08:22:15.038Z,390
2018-05-24T08:23:14.774Z,385
2018-05-24T08:24:14.834Z,395
2018-05-24T08:25:15.157Z,395
2018-05-24T08:26:14.840Z,390
2018-05-24T08:27:14.546Z,380
2018-05-24T08:28:15.093Z,400
2018-05-24T08:29:14.678Z,440
2018-05-24T08:30:15.369Z,400
2018-05-24T08:31:14.918Z,400
2018-05-24T08:32:15.094Z,400
2018-05-24T08:33:14.923Z,410
2018-05-24T08:34:14.663Z,360
2018-05-24T08:35:14.901Z,360
2018-05-24T08:36:14.928Z,330
2018-05-24T08:37:15.148Z,330
2018-05-24T08:38:15.149Z,345
2018-05-24T08:39:14.881Z,340
2018-05-24T08:40:15.767Z,340
2018-05-24T08:41:14.672Z,340
2018-05-24T08:42:14.642Z,320
2018-05-24T08:43:14.666Z,325
2018-05-24T08:44:14.920Z,325
2018-05-24T08:45:15.451Z,320
2018-05-24T08:46:14.412Z,320
2018-05-24T08:47:15.915Z,325
2018-05-24T08:48:15.471Z,325
2018-05-24T08:49:14.685Z,320
2018-05-24T08:50:14.778Z,315
2018-05-24T08:51:15.258Z,315
2018-05-24T08:52:15.485Z,310
2018-05-24T08:53:14.978Z,315
2018-05-24T08:54:14.969Z,325
2018-05-24T08:55:15.318Z,325
2018-05-24T08:56:15.320Z,335
2018-05-24T08:57:15.270Z,355
2018-05-24T08:58:15.238Z,350
2018-05-24T08:59:14.991Z,355
2018-05-24T09:00:15.539Z,355
2018-05-24T09:01:15.102Z,350
2018-05-24T09:02:14.759Z,355
2018-05-24T09:03:14.996Z,355
2018-05-24T09:04:16.082Z,365
2018-05-24T09:05:15.182Z,365
2018-05-24T09:06:15.591Z,360
2018-05-24T09:07:14.774Z,360
2018-05-24T09:08:15.553Z,360
2018-05-24T09:09:15.912Z,365
2018-05-24T09:10:15.229Z,360
2018-05-24T09:11:15.587Z,360
2018-05-24T09:12:15.326Z,365
2018-05-24T09:13:15.327Z,360
2018-05-24T09:14:15.064Z,360
2018-05-24T09:15:15.612Z,360
2018-05-24T09:16:15.412Z,360
2018-05-24T09:17:15.697Z,360
2018-05-24T09:18:15.351Z,350
2018-05-24T09:19:15.615Z,345
2018-05-24T09:20:15.865Z,335
2018-05-24T09:21:15.428Z,330
2018-05-24T09:22:15.360Z,330
2018-05-24T09:23:15.115Z,330
2018-05-24T09:24:15.106Z,340
2018-05-24T09:25:15.736Z,345
2018-05-24T09:26:15.642Z,355
2018-05-24T09:27:15.505Z,355
2018-05-24T09:28:15.156Z,350
2018-05-24T09:29:14.878Z,350
2018-05-24T09:30:15.011Z,345
2018-05-24T09:31:15.536Z,355
2018-05-24T09:32:15.258Z,340
2018-05-24T09:33:15.422Z,345
2018-05-24T09:34:15.468Z,340
2018-05-24T09:35:14.896Z,330
2018-05-24T09:36:15.329Z,320
2018-05-24T09:37:15.175Z,310
2018-05-24T09:38:15.433Z,300
2018-05-24T09:39:15.458Z,305
2018-05-24T09:40:15.682Z,305
2018-05-24T09:41:15.282Z,315
2018-05-24T09:42:15.849Z,305
2018-05-24T09:43:15.737Z,295
2018-05-24T09:44:15.485Z,290
2018-05-24T09:45:15.321Z,290
2018-05-24T09:46:14.973Z,290
2018-05-24T09:47:15.331Z,290
2018-05-24T09:48:15.245Z,290
2018-05-24T09:49:15.228Z,300
2018-05-24T09:50:15.305Z,310
2018-05-24T09:51:15.534Z,315
2018-05-24T09:52:15.555Z,315
2018-05-24T09:53:15.276Z,320
2018-05-24T09:54:15.544Z,330
2018-05-24T09:55:15.612Z,330
2018-05-24T09:56:15.344Z,335
2018-05-24T09:57:15.286Z,340
2018-05-24T09:58:15.035Z,340
2018-05-24T09:59:15.651Z,340
2018-05-24T10:00:15.603Z,345
2018-05-24T10:01:15.568Z,340
2018-05-24T10:02:15.314Z,330
2018-05-24T10:03:15.583Z,325
2018-05-24T10:04:15.691Z,335
2018-05-24T10:05:15.502Z,305
2018-05-24T10:06:15.085Z,300
2018-05-24T10:07:15.671Z,300
2018-05-24T10:08:15.350Z,290
2018-05-24T10:09:15.355Z,290
2018-05-24T10:10:15.585Z,285
2018-05-24T10:11:15.190Z,290
2018-05-24T10:12:15.633Z,290
2018-05-24T10:13:15.644Z,295
2018-05-24T10:14:15.379Z,295
2018-05-24T10:15:15.478Z,295
2018-05-24T10:16:16.469Z,295
2018-05-24T10:17:15.711Z,300
2018-05-24T10:18:15.672Z,300
2018-05-24T10:19:15.408Z,305
2018-05-24T10:20:15.589Z,305
2018-05-24T10:21:15.679Z,310
2018-05-24T10:22:15.673Z,315
2018-05-24T10:53:34.212Z,315
2018-05-24T10:54:33.348Z,305
2018-05-24T10:55:33.837Z,305
2018-05-24T10:56:33.593Z,305
2018-05-24T10:57:33.832Z,300
2018-05-24T10:58:33.832Z,300
2018-05-24T10:59:34.186Z,295
2018-05-24T11:00:34.132Z,290
2018-05-24T11:01:33.839Z,285
2018-05-24T11:02:33.912Z,280
2018-05-24T11:03:34.111Z,275
2018-05-24T11:04:33.354Z,270
2018-05-24T11:05:33.591Z,270
2018-05-24T11:06:34.054Z,270
2018-05-24T11:07:33.113Z,265
2018-05-24T11:08:33.884Z,270
2018-05-24T11:09:33.385Z,270
2018-05-24T11:10:33.631Z,265
2018-05-24T11:11:33.729Z,265
2018-05-24T11:12:34.150Z,270
2018-05-24T11:13:33.363Z,270
2018-05-24T11:14:33.654Z,270
2018-05-24T11:15:33.649Z,265
2018-05-24T11:16:33.662Z,255
2018-05-24T11:17:33.642Z,250
2018-05-24T11:18:33.637Z,245
2018-05-24T11:19:33.921Z,245
2018-05-24T11:20:33.962Z,250
2018-05-24T11:21:33.685Z,260
2018-05-24T11:22:33.963Z,275
2018-05-24T11:23:33.763Z,280
2018-05-24T11:24:33.423Z,280
2018-05-24T11:25:34.217Z,280
2018-05-24T11:26:33.712Z,275
2018-05-24T11:27:34.251Z,275
2018-05-24T11:28:33.450Z,275
2018-05-24T11:29:33.523Z,270
2018-05-24T11:30:34.237Z,275
2018-05-24T11:31:33.732Z,270
2018-05-24T11:32:33.451Z,275
2018-05-24T11:33:34.018Z,285
2018-05-24T11:34:34.007Z,280
2018-05-24T11:35:34.256Z,270
2018-05-24T11:36:33.741Z,260
2018-05-24T11:37:33.519Z,260
2018-05-24T11:38:34.823Z,265
2018-05-24T11:39:34.029Z,260
2018-05-24T11:40:34.023Z,265
2018-05-24T11:41:33.783Z,270
2018-05-24T11:42:34.295Z,275
2018-05-24T11:43:34.123Z,280
2018-05-24T11:44:34.037Z,295
2018-05-24T11:45:33.773Z,295
2018-05-24T11:46:34.044Z,295
2018-05-24T11:47:33.557Z,300
2018-05-24T11:48:33.821Z,310
2018-05-24T11:49:34.073Z,325
2018-05-24T11:50:34.072Z,335
2018-05-24T11:51:34.097Z,345
2018-05-24T11:52:34.081Z,355
2018-05-24T11:53:33.845Z,365
2018-05-24T11:54:34.367Z,375
2018-05-24T11:55:33.825Z,380
2018-05-24T11:56:34.109Z,385
2018-05-24T11:57:34.112Z,390
2018-05-24T11:58:34.107Z,400
2018-05-24T11:59:33.865Z,410
2018-05-24T12:00:34.132Z,425
2018-05-24T12:01:33.601Z,425
2018-05-24T12:02:34.132Z,425
2018-05-24T12:03:33.344Z,430
2018-05-24T12:04:33.899Z,430
2018-05-24T12:05:33.912Z,435
2018-05-24T12:06:33.881Z,435
2018-05-24T12:07:33.386Z,435
2018-05-24T12:08:34.403Z,435
2018-05-24T12:09:34.193Z,435
2018-05-24T12:10:33.920Z,445
2018-05-24T12:11:34.428Z,435
2018-05-24T12:12:33.919Z,440
2018-05-24T12:13:34.195Z,430
2018-05-24T12:14:33.924Z,430
2018-05-24T12:15:34.449Z,425
2018-05-24T12:16:34.484Z,420
2018-05-24T12:17:33.961Z,420
2018-05-24T12:18:34.216Z,415
2018-05-24T12:19:34.226Z,415
2018-05-24T12:20:33.718Z,405
2018-05-24T12:21:33.974Z,405
2018-05-24T12:22:34.231Z,400
2018-05-24T12:23:34.244Z,395
2018-05-24T12:24:34.087Z,390
2018-05-24T12:25:33.747Z,385
2018-05-24T12:26:34.303Z,385
2018-05-24T12:27:34.029Z,380
2018-05-24T12:28:34.020Z,380
2018-05-24T12:29:34.076Z,380
2018-05-24T12:30:33.761Z,370
2018-05-24T12:31:33.899Z,365
2018-05-24T12:32:34.028Z,360
2018-05-24T12:33:33.799Z,355
2018-05-24T12:34:34.301Z,355
2018-05-24T12:35:35.398Z,350
2018-05-24T12:36:34.324Z,345
2018-05-24T12:37:33.804Z,350
2018-05-24T12:38:34.316Z,360
2018-05-24T12:39:33.820Z,370
2018-05-24T12:40:34.091Z,380
2018-05-24T12:41:33.885Z,380
2018-05-24T12:42:34.364Z,380
2018-05-24T12:43:34.113Z,385
2018-05-24T12:44:34.620Z,395
2018-05-24T12:45:34.140Z,400
2018-05-24T12:46:34.135Z,410
2018-05-24T12:47:34.112Z,425
2018-05-24T12:48:34.427Z,445
2018-05-24T12:49:34.125Z,455
2018-05-24T12:50:34.394Z,455
2018-05-24T12:51:34.149Z,460
2018-05-24T12:52:34.385Z,455
2018-05-24T12:53:34.427Z,455
2018-05-24T12:54:34.183Z,455
2018-05-24T12:55:34.418Z,450
2018-05-24T12:56:34.177Z,435
2018-05-24T12:57:34.171Z,430
2018-05-24T12:58:33.973Z,425
2018-05-24T12:59:34.458Z,415
2018-05-24T13:00:34.206Z,415
2018-05-24T13:01:34.448Z,415
2018-05-24T13:02:33.940Z,415
2018-05-24T13:03:34.219Z,410
2018-05-24T13:04:34.479Z,405
2018-05-24T13:05:34.494Z,400
2018-05-24T13:06:34.573Z,395
2018-05-24T13:07:34.236Z,395
2018-05-24T13:08:34.979Z,390
2018-05-24T13:09:34.232Z,390
2018-05-24T13:10:34.778Z,385
2018-05-24T13:11:34.535Z,380
2018-05-24T13:12:34.513Z,375
2018-05-24T13:13:34.261Z,375
2018-05-24T13:14:34.282Z,375
2018-05-24T13:15:34.270Z,380
2018-05-24T13:16:34.532Z,385
2018-05-24T13:17:34.276Z,380
2018-05-24T13:18:34.041Z,370
2018-05-24T13:19:34.035Z,360
2018-05-24T13:20:34.827Z,360
2018-05-24T13:21:34.298Z,360
2018-05-24T13:22:34.865Z,365
2018-05-24T13:23:34.043Z,375
2018-05-24T13:24:34.534Z,350
2018-05-24T13:25:34.405Z,340
2018-05-24T13:26:34.328Z,350
2018-05-24T13:27:34.590Z,355
2018-05-24T13:28:34.077Z,350
2018-05-24T13:29:34.855Z,345
2018-05-24T13:30:34.344Z,345
2018-05-24T13:31:34.612Z,345
2018-05-24T13:32:34.871Z,340
2018-05-24T13:33:34.356Z,335
2018-05-24T13:34:34.609Z,335
2018-05-24T13:35:34.621Z,335
2018-05-24T13:36:34.620Z,345
2018-05-24T13:37:34.391Z,345
2018-05-24T13:38:35.746Z,360
2018-05-24T13:39:34.116Z,360
2018-05-24T13:40:34.986Z,360
2018-05-24T13:41:34.268Z,365
2018-05-24T13:42:34.418Z,360
2018-05-24T13:43:34.386Z,350
2018-05-24T13:44:34.678Z,340
2018-05-24T13:45:34.928Z,340
2018-05-24T13:46:34.444Z,330
2018-05-24T13:47:34.941Z,320
2018-05-24T13:48:34.951Z,315
2018-05-24T13:49:34.708Z,310
2018-05-24T13:50:34.454Z,300
2018-05-24T13:51:34.447Z,295
2018-05-24T13:52:34.477Z,290
2018-05-24T13:53:34.778Z,290
2018-05-24T13:54:34.226Z,290
2018-05-24T13:55:34.991Z,275
2018-05-24T13:56:34.465Z,275
2018-05-24T13:57:34.721Z,270
2018-05-24T13:58:34.783Z,270
2018-05-24T13:59:34.745Z,260
2018-05-24T14:00:34.758Z,255
2018-05-24T14:01:35.381Z,250
2018-05-24T14:02:34.559Z,250
2018-05-24T14:03:34.807Z,245
2018-05-24T14:04:34.322Z,245
2018-05-24T14:05:34.538Z,250
2018-05-24T14:07:34.554Z,250
2018-05-24T14:08:36.658Z,250
2018-05-24T14:09:34.891Z,255
2018-05-24T14:10:35.047Z,270
2018-05-24T14:11:34.271Z,285
2018-05-24T14:12:34.797Z,290
2018-05-24T14:13:34.561Z,295
2018-05-24T14:14:34.029Z,295
2018-05-24T14:15:34.545Z,290
2018-05-24T14:16:34.822Z,305
2018-05-24T14:17:35.049Z,305
2018-05-24T14:18:34.845Z,275
2018-05-24T14:19:34.297Z,275
2018-05-24T14:20:34.589Z,270
2018-05-24T14:21:34.834Z,270
2018-05-24T14:22:35.108Z,270
2018-05-24T14:23:34.865Z,275
2018-05-24T14:24:34.610Z,270
2018-05-24T14:25:34.375Z,260
2018-05-24T14:26:34.870Z,245
2018-05-24T14:27:34.622Z,240
2018-05-24T14:28:34.346Z,230
2018-05-24T14:29:34.901Z,230
2018-05-24T14:30:34.877Z,225
2018-05-24T14:31:34.873Z,220
2018-05-24T14:32:34.617Z,220
2018-05-24T14:33:34.877Z,220
2018-05-24T14:34:34.621Z,215
2018-05-24T14:35:34.363Z,215
2018-05-24T14:36:34.652Z,215
2018-05-24T14:37:34.883Z,210
2018-05-24T14:38:34.903Z,205
2018-05-24T14:39:34.911Z,200
2018-05-24T14:40:34.912Z,190
2018-05-24T14:41:34.692Z,180
2018-05-24T14:42:35.186Z,175
2018-05-24T14:43:34.921Z,170
2018-05-24T14:44:34.678Z,165
2018-05-24T14:45:34.674Z,155
2018-05-24T14:46:34.666Z,150
2018-05-24T14:47:35.434Z,150